NOAA Web Site Link Tides and Currents Home Page Transparent placeholder image

PORTS® Data Listing: 8557380 Lewes, DE

CO-OPS RAW PORTS DATA

************************      PRELIMINARY DATA      ************************** 

     THIS RAW DATA HAS NOT BEEN SUBJECT TO THE NATIONAL OCEAN SERVICE'S        
     QUALITY CONTROL OR QUALITY ASSURANCE PROCEDURES AND DOES NOT MEET         
     THE CRITERIA AND STANDARDS OF OFFICIAL NATIONAL OCEAN SERVICE             
     DATA.  IT IS RELEASED FOR LIMITED PUBLIC USE AS PRELIMINARY DATA TO       
     BE USED ONLY WITH APPROPRIATE CAUTION.                                    

************************      PRELIMINARY DATA      ************************** 


       CD   -   Calendar date
       T    -   Time
       TZ   -   Timezone
       PW   -   Predicted water level (feet above MLLW)
       OW   -   Observed water level (feet above MLLW)
       WS   -   Wind speed (knots)
       WD   -   Wind direction (degrees true)
       WG   -   Wind gust (knots)
       AT   -   Air temperature (degrees farenheit)
       WT   -   Water temperature (degrees farenheit)
       AP   -   Air pressure (millibars)
       SA   -   Salinty (PSU - Practical Salinity Units)
       SG   -   Specific gravity
       RH   -   Relative humidity
       AG   -   Air gap (feet)
       VI   -   Visibility (nautical miles)

       ** NOTE **
       A variable that has its data fields filled with "9"s, indicates that
       data was not collected for that sample period.
       **********


STATION NAME: Lewes (8557380)
****************************************************************************************************
    CD       T    TZ    PW     OW    WS   WD   WG    AT    WT    AP    SA    SG     RH    AG   VI
****************************************************************************************************
2018/10/21 20:54 EDT    3.80   4.29   20  338   26  51.3  60.8 1022.0 24.4  1.018 -99.9 -99.99 -9.99
2018/10/21 21:00 EDT    3.73   4.17   22  345   26  51.3  60.6 1022.2 24.4  1.019 -99.9 -99.99 -9.99
2018/10/21 21:06 EDT    3.65   4.11   19  341   23  50.9  60.6 1022.3 24.4  1.019 -99.9 -99.99 -9.99
2018/10/21 21:12 EDT    3.57   4.03   21  338   26  50.7  60.6 1022.3 24.3  1.019 -99.9 -99.99 -9.99
2018/10/21 21:18 EDT    3.49   3.90   22  349   26  50.7  60.6 1022.5 24.3  1.018 -99.9 -99.99 -9.99
2018/10/21 21:24 EDT    3.40   3.80   21  344   26  51.1  60.6 1022.5 24.3  1.018 -99.9 -99.99 -9.99
2018/10/21 21:30 EDT    3.31   3.70   20  340   23  50.9  60.4 1022.5 24.2  1.018 -99.9 -99.99 -9.99
2018/10/21 21:36 EDT    3.21   3.54   21  338   26  50.7  60.4 1022.7 24.1  1.018 -99.9 -99.99 -9.99
2018/10/21 21:42 EDT    3.12   3.43   22  343   26  50.7  60.3 1022.7 24.0  1.018 -99.9 -99.99 -9.99
2018/10/21 21:48 EDT    3.02   3.37   22  344   27  50.4  60.3 1022.7 23.9  1.018 -99.9 -99.99 -9.99
2018/10/21 21:54 EDT    2.92   3.29   20  345   23  51.1  60.3 1022.9 23.9  1.018 -99.9 -99.99 -9.99
2018/10/21 22:00 EDT    2.81   3.20   23  342   27  50.2  60.1 1023.1 23.9  1.018 -99.9 -99.99 -9.99
2018/10/21 22:06 EDT    2.71   3.07   22  347   26  50.4  60.1 1023.1 23.8  1.018 -99.9 -99.99 -9.99
2018/10/21 22:12 EDT    2.60   2.96   22  350   26  50.5  60.1 1023.1 23.8  1.018 -99.9 -99.99 -9.99
2018/10/21 22:18 EDT    2.50   2.88   20  339   24  50.5  60.1 1023.0 23.8  1.018 -99.9 -99.99 -9.99
2018/10/21 22:24 EDT    2.39   2.78   22  338   25  50.4  59.9 1023.1 23.9  1.018 -99.9 -99.99 -9.99
2018/10/21 22:30 EDT    2.28   2.67   20  341   26  50.9  59.9 1023.1 23.8  1.018 -99.9 -99.99 -9.99
2018/10/21 22:36 EDT    2.17   2.58   18  337   22  50.5  59.9 1023.2 23.8  1.018 -99.9 -99.99 -9.99
2018/10/21 22:42 EDT    2.06   2.47   19  338   24  50.4  59.7 1023.3 23.8  1.018 -99.9 -99.99 -9.99
2018/10/21 22:48 EDT    1.95   2.35   19  332   22  50.2  59.7 1023.3 23.7  1.018 -99.9 -99.99 -9.99
2018/10/21 22:54 EDT    1.85   2.23   18  341   23  50.4  59.7 1023.2 23.6  1.018 -99.9 -99.99 -9.99
2018/10/21 23:00 EDT    1.74   2.08   19  341   24  50.2  59.7 1023.2 23.6  1.018 -99.9 -99.99 -9.99
2018/10/21 23:06 EDT    1.64   1.99   18  336   24  49.8  59.7 1023.3 23.5  1.018 -99.9 -99.99 -9.99
2018/10/21 23:12 EDT    1.53   1.87   17  328   23  49.5  59.5 1023.5 23.6  1.018 -99.9 -99.99 -9.99
2018/10/21 23:18 EDT    1.43   1.78   16  302   19  48.0  59.5 1023.4 23.5  1.018 -99.9 -99.99 -9.99
2018/10/21 23:24 EDT    1.34   1.67   16  310   18  48.6  59.5 1023.2 23.5  1.018 -99.9 -99.99 -9.99
2018/10/21 23:30 EDT    1.24   1.59   14  300   17  47.8  59.5 1023.3 23.5  1.018 -99.9 -99.99 -9.99
2018/10/21 23:36 EDT    1.15   1.53   13  297   15  46.6  59.4 1023.4 23.5  1.018 -99.9 -99.99 -9.99
2018/10/21 23:42 EDT    1.07   1.43   13  303   15  46.6  59.4 1023.5 23.5  1.018 -99.9 -99.99 -9.99
2018/10/21 23:48 EDT    0.98   1.29   13  303   15  47.1  59.5 1023.5 23.4  1.018 -99.9 -99.99 -9.99
2018/10/21 23:54 EDT    0.90   1.22   13  302   16  46.8  59.5 1023.4 23.4  1.018 -99.9 -99.99 -9.99
2018/10/22 00:00 EDT    0.83   1.16   13  299   15  46.6  59.5 1023.5 23.4  1.018 -99.9 -99.99 -9.99
2018/10/22 00:06 EDT    0.76   1.10   12  297   15  45.9  59.5 1023.5 23.3  1.018 -99.9 -99.99 -9.99
2018/10/22 00:12 EDT    0.70   0.98   13  296   15  45.9  59.5 1023.6 23.3  1.018 -99.9 -99.99 -9.99
2018/10/22 00:18 EDT    0.64   0.94   12  299   14  45.5  59.5 1023.8 23.4  1.018 -99.9 -99.99 -9.99
2018/10/22 00:24 EDT    0.58   0.88   12  301   14  45.7  59.5 1023.7 23.3  1.018 -99.9 -99.99 -9.99
2018/10/22 00:30 EDT    0.53   0.80   14  310   17  45.7  59.5 1023.8 23.3  1.018 -99.9 -99.99 -9.99
2018/10/22 00:36 EDT    0.49   0.76   14  310   16  45.7  59.5 1023.9 23.2  1.018 -99.9 -99.99 -9.99
2018/10/22 00:42 EDT    0.45   0.68   13  303   16  45.7  59.5 1024.1 23.2  1.018 -99.9 -99.99 -9.99
2018/10/22 00:48 EDT    0.42   0.67   13  301   15  45.3  59.5 1024.1 23.2  1.018 -99.9 -99.99 -9.99
2018/10/22 00:54 EDT    0.39   0.61   12  295   15  45.1  59.5 1024.1 23.2  1.018 -99.9 -99.99 -9.99
2018/10/22 01:00 EDT    0.37   0.62   12  297   14  44.6  59.5 1024.2 23.1  1.018 -99.9 -99.99 -9.99
2018/10/22 01:06 EDT    0.35   0.62   11  293   13  44.6  59.7 1024.2 23.1  1.018 -99.9 -99.99 -9.99
2018/10/22 01:12 EDT    0.34   0.62   11  292   12  44.6  59.7 1024.4 23.0  1.018 -99.9 -99.99 -9.99
2018/10/22 01:18 EDT    0.33   0.60   10  287   11  44.2  59.7 1024.4 23.0  1.018 -99.9 -99.99 -9.99
2018/10/22 01:24 EDT    0.33   0.65   10  294   12  43.9  59.7 1024.4 23.1  1.018 -99.9 -99.99 -9.99
2018/10/22 01:30 EDT    0.34   0.66   10  286   11  43.5  59.7 1024.4 23.0  1.018 -99.9 -99.99 -9.99
2018/10/22 01:36 EDT    0.35   0.68   10  287   12  43.2  59.7 1024.5 23.0  1.018 -99.9 -99.99 -9.99
2018/10/22 01:42 EDT    0.36   0.68   11  294   13  43.3  59.5 1024.5 23.0  1.018 -99.9 -99.99 -9.99
2018/10/22 01:48 EDT    0.38   0.67   13  298   15  43.3  59.5 1024.7 23.1  1.018 -99.9 -99.99 -9.99
2018/10/22 01:54 EDT    0.41   0.66   12  301   13  44.1  59.5 1024.7 23.2  1.018 -99.9 -99.99 -9.99
2018/10/22 02:00 EDT    0.44   0.67   12  299   13  44.6  59.5 1024.7 23.2  1.018 -99.9 -99.99 -9.99
2018/10/22 02:06 EDT    0.47   0.68   12  301   15  44.8  59.5 1024.7 23.3  1.018 -99.9 -99.99 -9.99
2018/10/22 02:12 EDT    0.51   0.69   12  295   14  44.8  59.5 1024.8 23.3  1.018 -99.9 -99.99 -9.99
2018/10/22 02:18 EDT    0.55   0.73   11  298   14  44.6  59.5 1024.8 23.3  1.018 -99.9 -99.99 -9.99
2018/10/22 02:24 EDT    0.60   0.79   12  302   13  44.8  59.5 1024.9 23.3  1.018 -99.9 -99.99 -9.99
2018/10/22 02:30 EDT    0.65   0.85   11  298   12  44.6  59.5 1024.9 23.3  1.018 -99.9 -99.99 -9.99
2018/10/22 02:36 EDT    0.70   0.92   11  300   13  44.8  59.5 1024.9 23.2  1.018 -99.9 -99.99 -9.99
2018/10/22 02:42 EDT    0.76   1.00    8  283   12  43.0  59.5 1025.0 23.1  1.018 -99.9 -99.99 -9.99
2018/10/22 02:48 EDT    0.82   1.06    9  284   11  42.8  59.5 1024.9 23.1  1.018 -99.9 -99.99 -9.99
2018/10/22 02:54 EDT    0.88   1.14   10  288   11  43.3  59.5 1024.9 23.2  1.018 -99.9 -99.99 -9.99
2018/10/22 03:00 EDT    0.95   1.19    9  295   11  43.7  59.5 1024.8 23.2  1.018 -99.9 -99.99 -9.99
2018/10/22 03:06 EDT    1.03   1.26   10  295   11  43.7  59.7 1024.9 23.1  1.018 -99.9 -99.99 -9.99
2018/10/22 03:12 EDT    1.10   1.36    9  292   11  43.7  59.7 1024.9 23.1  1.018 -99.9 -99.99 -9.99
2018/10/22 03:18 EDT    1.18   1.42    9  293   11  43.7  59.7 1024.9 23.1  1.018 -99.9 -99.99 -9.99
2018/10/22 03:24 EDT    1.26   1.46    9  291   11  43.7  59.7 1025.0 23.1  1.018 -99.9 -99.99 -9.99
2018/10/22 03:30 EDT    1.34   1.55    7  286   10  43.7  59.7 1024.9 23.0  1.018 -99.9 -99.99 -9.99
2018/10/22 03:36 EDT    1.43   1.64    9  288   11  44.1  59.5 1025.0 23.1  1.018 -99.9 -99.99 -9.99
2018/10/22 03:42 EDT    1.52   1.76    9  287   11  44.4  59.5 1025.0 23.1  1.018 -99.9 -99.99 -9.99
2018/10/22 03:48 EDT    1.61   1.84    9  291   11  44.4  59.5 1025.0 23.2  1.018 -99.9 -99.99 -9.99
2018/10/22 03:54 EDT    1.70   1.98    8  287    9  43.7  59.5 1025.0 23.2  1.018 -99.9 -99.99 -9.99
2018/10/22 04:00 EDT    1.80   2.07    9  290   11  43.3  59.5 1025.0 23.2  1.018 -99.9 -99.99 -9.99
2018/10/22 04:06 EDT    1.89   2.18    9  290   11  43.5  59.5 1025.0 23.2  1.018 -99.9 -99.99 -9.99
2018/10/22 04:12 EDT    1.99   2.28    9  296   12  44.2  59.5 1025.0 23.2  1.018 -99.9 -99.99 -9.99
2018/10/22 04:18 EDT    2.09   2.42   11  308   12  45.0  59.5 1024.9 23.2  1.018 -99.9 -99.99 -9.99
2018/10/22 04:24 EDT    2.19   2.51   12  304   13  45.3  59.5 1025.0 23.2  1.018 -99.9 -99.99 -9.99
2018/10/22 04:30 EDT    2.29   2.61   11  307   14  45.5  59.5 1025.0 23.2  1.018 -99.9 -99.99 -9.99
2018/10/22 04:36 EDT    2.39   2.68   10  298   12  45.0  59.5 1024.9 23.2  1.018 -99.9 -99.99 -9.99
2018/10/22 04:42 EDT    2.50   2.78   11  294   13  44.6  59.4 1024.9 23.3  1.018 -99.9 -99.99 -9.99
2018/10/22 04:48 EDT    2.60   2.85   11  291   14  44.8  59.4 1025.0 23.2  1.018 -99.9 -99.99 -9.99
2018/10/22 04:54 EDT    2.70   2.96   10  292   13  44.8  59.4 1025.1 23.2  1.018 -99.9 -99.99 -9.99
2018/10/22 05:00 EDT    2.80   3.05   10  297   13  44.4  59.2 1025.1 23.2  1.018 -99.9 -99.99 -9.99
2018/10/22 05:06 EDT    2.90   3.17    8  276   10  42.1  59.2 1025.1 23.2  1.018 -99.9 -99.99 -9.99
2018/10/22 05:12 EDT    3.00   3.26    8  274   11  41.5  59.2 1025.2 23.2  1.018 -99.9 -99.99 -9.99
2018/10/22 05:18 EDT    3.09   3.34    7  265    9  40.5  59.0 1025.2 23.2  1.018 -99.9 -99.99 -9.99
2018/10/22 05:24 EDT    3.19   3.47    8  270   10  40.5  58.8 1025.3 23.2  1.018 -99.9 -99.99 -9.99
2018/10/22 05:30 EDT    3.28   3.60    7  284    9  41.4  58.8 1025.4 23.2  1.018 -99.9 -99.99 -9.99
2018/10/22 05:36 EDT    3.37   3.68    6  280    9  41.2  58.6 1025.5 23.2  1.018 -99.9 -99.99 -9.99
2018/10/22 05:42 EDT    3.46   3.77    7  279    9  41.5  58.6 1025.5 23.2  1.018 -99.9 -99.99 -9.99
2018/10/22 05:48 EDT    3.55   3.84    8  272   10  40.6  58.5 1025.5 23.3  1.018 -99.9 -99.99 -9.99
2018/10/22 05:54 EDT    3.63   3.93    8  269   10  40.3  58.6 1025.4 23.3  1.018 -99.9 -99.99 -9.99
2018/10/22 06:00 EDT    3.71   3.99    7  266    9  40.1  58.5 1025.4 23.2  1.018 -99.9 -99.99 -9.99
2018/10/22 06:06 EDT    3.78   4.05    5  262    8  39.9  58.5 1025.5 23.0  1.018 -99.9 -99.99 -9.99
2018/10/22 06:12 EDT    3.85   4.09    7  270    9  40.1  58.1 1025.6 23.0  1.018 -99.9 -99.99 -9.99
2018/10/22 06:18 EDT    3.92   4.16    7  282    9  41.2  58.1 1025.7 23.0  1.018 -99.9 -99.99 -9.99
2018/10/22 06:24 EDT    3.98   4.20    6  269    9  40.3  58.1 1025.8 23.0  1.018 -99.9 -99.99 -9.99
2018/10/22 06:30 EDT    4.04   4.27    8  275   11  40.3  57.9 1025.8 23.0  1.018 -99.9 -99.99 -9.99
2018/10/22 06:36 EDT    4.09   4.32    9  284   13  41.0  57.9 1025.8 23.0  1.018 -99.9 -99.99 -9.99
2018/10/22 06:42 EDT    4.14   4.40   10  287   12  41.5  57.9 1025.9 23.1  1.018 -99.9 -99.99 -9.99
2018/10/22 06:48 EDT    4.19   4.44    9  284   11  41.9  57.7 1025.9 23.1  1.018 -99.9 -99.99 -9.99
2018/10/22 06:54 EDT    4.23   4.49   10  293   12  42.3  57.7 1025.8 23.0  1.018 -99.9 -99.99 -9.99
2018/10/22 07:00 EDT    4.26   4.50   10  291   12  42.4  57.7 1025.9 22.9  1.018 -99.9 -99.99 -9.99
2018/10/22 07:06 EDT    4.29   4.53    9  286   11  42.8  57.7 1026.0 22.8  1.018 -99.9 -99.99 -9.99
2018/10/22 07:12 EDT    4.32   4.54    8  281   11  41.2  57.9 1026.1 22.8  1.018 -99.9 -99.99 -9.99
2018/10/22 07:18 EDT    4.34   4.56   11  290   13  42.6  57.7 1026.1 22.8  1.018 -99.9 -99.99 -9.99
2018/10/22 07:24 EDT    4.35   4.56   10  290   12  42.4  57.7 1026.2 22.8  1.018 -99.9 -99.99 -9.99
2018/10/22 07:30 EDT    4.36   4.56   10  290   11  42.3  57.7 1026.2 22.8  1.018 -99.9 -99.99 -9.99
2018/10/22 07:36 EDT    4.37   4.58   10  291   12  42.4  57.7 1026.3 22.8  1.018 -99.9 -99.99 -9.99
2018/10/22 07:42 EDT    4.37   4.61   10  289   12  42.3  57.7 1026.3 22.7  1.018 -99.9 -99.99 -9.99
2018/10/22 07:48 EDT    4.36   4.62    9  284   11  42.1  57.7 1026.4 22.7  1.018 -99.9 -99.99 -9.99
2018/10/22 07:54 EDT    4.35   4.63   11  290   12  42.4  57.9 1026.5 22.7  1.018 -99.9 -99.99 -9.99
2018/10/22 08:00 EDT    4.34   4.62   10  285   12  42.8  57.9 1026.6 22.7  1.018 -99.9 -99.99 -9.99
2018/10/22 08:06 EDT    4.32   4.63    8  281   11  42.6  58.1 1026.7 22.6  1.017 -99.9 -99.99 -9.99
2018/10/22 08:12 EDT    4.30   4.65    9  281   10  43.0  58.3 1026.7 22.5  1.017 -99.9 -99.99 -9.99
2018/10/22 08:18 EDT    4.27   4.64    9  275   11  42.6  58.6 1026.8 22.4  1.017 -99.9 -99.99 -9.99
2018/10/22 08:24 EDT    4.23   4.60    7  272   10  42.6  58.5 1026.8 22.5  1.017 -99.9 -99.99 -9.99
2018/10/22 08:30 EDT    4.20   4.57    9  286   13  43.5  58.6 1026.8 22.4  1.017 -99.9 -99.99 -9.99
2018/10/22 08:36 EDT    4.15   4.51   11  293   13  43.3  58.6 1026.9 22.5  1.017 -99.9 -99.99 -9.99
2018/10/22 08:42 EDT    4.11   4.45   10  287   11  43.2  58.5 1026.9 22.5  1.017 -99.9 -99.99 -9.99
2018/10/22 08:48 EDT    4.06   4.40    9  295   10  44.2  58.3 1027.0 22.6  1.017 -99.9 -99.99 -9.99
2018/10/22 08:54 EDT    4.00   4.34   10  289   11  44.1  58.1 1027.1 22.7  1.017 -99.9 -99.99 -9.99
2018/10/22 09:00 EDT    3.94   4.28   11  298   12  44.4  57.9 1027.1 22.8  1.018 -99.9 -99.99 -9.99
2018/10/22 09:06 EDT    3.88   4.22   11  300   12  44.4  58.3 1027.0 22.7  1.017 -99.9 -99.99 -9.99
2018/10/22 09:12 EDT    3.81   4.17   11  299   12  44.6  58.3 1027.0 23.0  1.018 -99.9 -99.99 -9.99
2018/10/22 09:18 EDT    3.74   4.09    9  300   11  44.8  58.5 1027.0 23.5  1.018 -99.9 -99.99 -9.99
2018/10/22 09:24 EDT    3.66   4.02    8  297    9  45.1  58.5 1027.0 23.8  1.018 -99.9 -99.99 -9.99
2018/10/22 09:30 EDT    3.59   3.95    7  300    9  45.1  58.3 1027.0 24.0  1.019 -99.9 -99.99 -9.99
2018/10/22 09:36 EDT    3.50   3.92    7  299    8  45.3  58.3 1027.0 24.1  1.019 -99.9 -99.99 -9.99
2018/10/22 09:42 EDT    3.42   3.84    6  302    8  45.7  58.3 1027.1 24.4  1.019 -99.9 -99.99 -9.99
2018/10/22 09:48 EDT    3.33   3.75    7  305    8  45.9  58.1 1027.2 24.6  1.019 -99.9 -99.99 -9.99
2018/10/22 09:54 EDT    3.24   3.67    6  304    8  46.0  58.3 1027.2 24.5  1.019 -99.9 -99.99 -9.99
2018/10/22 10:00 EDT    3.14   3.58    6  309    8  46.2  58.3 1027.3 24.6  1.019 -99.9 -99.99 -9.99
2018/10/22 10:06 EDT    3.04   3.49    6  295    7  46.8  58.3 1027.2 24.8  1.019 -99.9 -99.99 -9.99
2018/10/22 10:12 EDT    2.94   3.40    4  296    5  46.8  58.5 1027.1 24.9  1.019 -99.9 -99.99 -9.99
2018/10/22 10:18 EDT    2.84   3.26    4  309    4  46.9  58.5 1027.0 24.9  1.019 -99.9 -99.99 -9.99
2018/10/22 10:24 EDT    2.74   3.18    2  327    3  47.3  58.5 1027.0 25.0  1.019 -99.9 -99.99 -9.99
2018/10/22 10:30 EDT    2.63   3.11    4  282    5  47.3  58.6 1027.0 25.0  1.019 -99.9 -99.99 -9.99
2018/10/22 10:36 EDT    2.53   3.05    2  311    5  48.0  58.8 1027.0 25.1  1.019 -99.9 -99.99 -9.99
2018/10/22 10:42 EDT    2.42   2.94    5  262    8  47.7  58.8 1027.1 25.2  1.019 -99.9 -99.99 -9.99
2018/10/22 10:48 EDT    2.31   2.85    5  276    9  48.0  58.8 1027.1 25.3  1.019 -99.9 -99.99 -9.99
2018/10/22 10:54 EDT    2.20   2.73    5  295    9  48.7  58.8 1027.0 25.4  1.020 -99.9 -99.99 -9.99
2018/10/22 11:00 EDT    2.10   2.59    4  230    6  49.5  59.0 1027.0 25.4  1.020 -99.9 -99.99 -9.99
2018/10/22 11:06 EDT    1.99   2.50    5  292   10  48.2  59.0 1027.0 25.4  1.019 -99.9 -99.99 -9.99
2018/10/22 11:12 EDT    1.88   2.36    8  295   11  48.0  59.2 1027.0 25.5  1.020 -99.9 -99.99 -9.99
2018/10/22 11:18 EDT    1.77   2.26    5  307    6  48.2  59.2 1026.9 25.5  1.020 -99.9 -99.99 -9.99
2018/10/22 11:24 EDT    1.67   2.14    5  219    7  49.3  59.2 1026.9 25.5  1.020 -99.9 -99.99 -9.99
2018/10/22 11:30 EDT    1.57   2.05    6  251    9  49.1  59.2 1026.9 25.4  1.019 -99.9 -99.99 -9.99
2018/10/22 11:36 EDT    1.47   1.92    7  299    9  48.4  59.4 1026.8 25.3  1.019 -99.9 -99.99 -9.99
2018/10/22 11:42 EDT    1.37   1.81    7  294   11  48.6  59.4 1026.7 25.3  1.019 -99.9 -99.99 -9.99
2018/10/22 11:48 EDT    1.27   1.73    4  181    8  49.6  59.4 1026.6 25.2  1.019 -99.9 -99.99 -9.99
2018/10/22 11:54 EDT    1.18   1.63    2  219    4  50.2  59.5 1026.6 25.1  1.019 -99.9 -99.99 -9.99
2018/10/22 12:00 EDT    1.09   1.55    8  276   11  48.9  59.5 1026.5 25.2  1.019 -99.9 -99.99 -9.99
2018/10/22 12:06 EDT    1.01   1.45    4  262    7  49.5  59.7 1026.4 24.8  1.019 -99.9 -99.99 -9.99
2018/10/22 12:12 EDT    0.93   1.35    5  245    7  50.2  59.7 1026.2 24.9  1.019 -99.9 -99.99 -9.99
2018/10/22 12:18 EDT    0.85   1.27    2  239    6  50.7  59.7 1026.2 24.8  1.019 -99.9 -99.99 -9.99
2018/10/22 12:24 EDT    0.78   1.24    4  186    5  50.0  59.9 1026.1 24.8  1.019 -99.9 -99.99 -9.99
2018/10/22 12:30 EDT    0.72   1.18    6  286    9  49.5  59.9 1026.0 24.7  1.019 -99.9 -99.99 -9.99
2018/10/22 12:36 EDT    0.66   1.11    5  176    8  50.0  59.9 1025.9 24.7  1.019 -99.9 -99.99 -9.99
2018/10/22 12:42 EDT    0.60   1.09    9  288   12  50.0  59.9 1025.9 24.7  1.019 -99.9 -99.99 -9.99
2018/10/22 12:48 EDT    0.55   1.04    5  230    8  51.1  60.1 1025.8 24.8  1.019 -99.9 -99.99 -9.99
2018/10/22 12:54 EDT    0.50   0.99    5  240   10  50.9  60.1 1025.7 24.9  1.019 -99.9 -99.99 -9.99
2018/10/22 13:00 EDT    0.46   0.95    6  286    9  50.5  60.1 1025.5 24.9  1.019 -99.9 -99.99 -9.99
2018/10/22 13:06 EDT    0.43   0.91    6  267    9  50.7  60.1 1025.4 24.8  1.019 -99.9 -99.99 -9.99
2018/10/22 13:12 EDT    0.40   0.91    7  272   11  51.4  60.1 1025.2 24.7  1.019 -99.9 -99.99 -9.99
2018/10/22 13:18 EDT    0.38   0.87    4  296    6  50.7  60.3 1025.1 24.6  1.019 -99.9 -99.99 -9.99
2018/10/22 13:24 EDT    0.36   0.83   10  284   12  51.1  60.3 1025.0 24.6  1.019 -99.9 -99.99 -9.99
2018/10/22 13:30 EDT    0.35   0.80    7  261    9  51.3  60.3 1025.0 24.6  1.019 -99.9 -99.99 -9.99
2018/10/22 13:36 EDT    0.34   0.83    6  258    9  52.2  60.3 1024.8 24.6  1.019 -99.9 -99.99 -9.99
2018/10/22 13:42 EDT    0.34   0.83   10  267   12  51.6  60.3 1024.7 24.6  1.019 -99.9 -99.99 -9.99
2018/10/22 13:48 EDT    0.34   0.83    8  250   10  52.5  60.4 1024.6 24.5  1.019 -99.9 -99.99 -9.99
2018/10/22 13:54 EDT    0.35   0.84    5  225    9  53.2  60.4 1024.5 24.5  1.019 -99.9 -99.99 -9.99
2018/10/22 14:00 EDT    0.37   0.85    8  267   12  52.7  60.4 1024.4 24.5  1.019 -99.9 -99.99 -9.99
2018/10/22 14:06 EDT    0.39   0.87    7  243   10  53.2  60.4 1024.3 24.5  1.019 -99.9 -99.99 -9.99
2018/10/22 14:12 EDT    0.41   0.90    7  225   11  53.4  60.4 1024.2 24.5  1.019 -99.9 -99.99 -9.99
2018/10/22 14:18 EDT    0.44   0.89    4  241    8  53.8  60.4 1024.1 24.6  1.019 -99.9 -99.99 -9.99
2018/10/22 14:24 EDT    0.47   0.95    7  254   10  54.3  60.6 1024.1 24.6  1.019 -99.9 -99.99 -9.99
2018/10/22 14:30 EDT    0.51   0.96    9  272   11  53.8  60.6 1023.9 24.7  1.019 -99.9 -99.99 -9.99
2018/10/22 14:36 EDT    0.56   1.02    4  234    8  55.0  60.8 1023.8 24.7  1.019 -99.9 -99.99 -9.99
2018/10/22 14:42 EDT    0.60   1.05    3  230    6  55.2  61.0 1023.7 24.7  1.019 -99.9 -99.99 -9.99
2018/10/22 14:48 EDT    0.65 -99.99 -999 -999 -999 -99.9 -99.9 -999.9 -9.9 -9.999 -99.9 -99.99 -9.99
2018/10/22 14:54 EDT    0.71 -99.99 -999 -999 -999 -99.9 -99.9 -999.9 -9.9 -9.999 -99.9 -99.99 -9.99
2018/10/22 15:00 EDT    0.77 -99.99 -999 -999 -999 -99.9 -99.9 -999.9 -9.9 -9.999 -99.9 -99.99 -9.99
2018/10/22 15:06 EDT    0.83 -99.99 -999 -999 -999 -99.9 -99.9 -999.9 -9.9 -9.999 -99.9 -99.99 -9.99
2018/10/22 15:12 EDT    0.90 -99.99 -999 -999 -999 -99.9 -99.9 -999.9 -9.9 -9.999 -99.9 -99.99 -9.99
2018/10/22 15:18 EDT    0.97 -99.99 -999 -999 -999 -99.9 -99.9 -999.9 -9.9 -9.999 -99.9 -99.99 -9.99
2018/10/22 15:24 EDT    1.04 -99.99 -999 -999 -999 -99.9 -99.9 -999.9 -9.9 -9.999 -99.9 -99.99 -9.99
2018/10/22 15:30 EDT    1.11 -99.99 -999 -999 -999 -99.9 -99.9 -999.9 -9.9 -9.999 -99.9 -99.99 -9.99
2018/10/22 15:36 EDT    1.19 -99.99 -999 -999 -999 -99.9 -99.9 -999.9 -9.9 -9.999 -99.9 -99.99 -9.99
2018/10/22 15:42 EDT    1.28 -99.99 -999 -999 -999 -99.9 -99.9 -999.9 -9.9 -9.999 -99.9 -99.99 -9.99
2018/10/22 15:48 EDT    1.36 -99.99 -999 -999 -999 -99.9 -99.9 -999.9 -9.9 -9.999 -99.9 -99.99 -9.99
2018/10/22 15:54 EDT    1.45 -99.99 -999 -999 -999 -99.9 -99.9 -999.9 -9.9 -9.999 -99.9 -99.99 -9.99
2018/10/22 16:00 EDT    1.54 -99.99 -999 -999 -999 -99.9 -99.9 -999.9 -9.9 -9.999 -99.9 -99.99 -9.99
2018/10/22 16:06 EDT    1.63 -99.99 -999 -999 -999 -99.9 -99.9 -999.9 -9.9 -9.999 -99.9 -99.99 -9.99
2018/10/22 16:12 EDT    1.72 -99.99 -999 -999 -999 -99.9 -99.9 -999.9 -9.9 -9.999 -99.9 -99.99 -9.99
2018/10/22 16:18 EDT    1.82 -99.99 -999 -999 -999 -99.9 -99.9 -999.9 -9.9 -9.999 -99.9 -99.99 -9.99
2018/10/22 16:24 EDT    1.92 -99.99 -999 -999 -999 -99.9 -99.9 -999.9 -9.9 -9.999 -99.9 -99.99 -9.99
2018/10/22 16:30 EDT    2.02 -99.99 -999 -999 -999 -99.9 -99.9 -999.9 -9.9 -9.999 -99.9 -99.99 -9.99
2018/10/22 16:36 EDT    2.12 -99.99 -999 -999 -999 -99.9 -99.9 -999.9 -9.9 -9.999 -99.9 -99.99 -9.99
2018/10/22 16:42 EDT    2.22 -99.99 -999 -999 -999 -99.9 -99.9 -999.9 -9.9 -9.999 -99.9 -99.99 -9.99
2018/10/22 16:48 EDT    2.32 -99.99 -999 -999 -999 -99.9 -99.9 -999.9 -9.9 -9.999 -99.9 -99.99 -9.99
2018/10/22 16:54 EDT    2.42 -99.99 -999 -999 -999 -99.9 -99.9 -999.9 -9.9 -9.999 -99.9 -99.99 -9.99
2018/10/22 17:00 EDT    2.53 -99.99 -999 -999 -999 -99.9 -99.9 -999.9 -9.9 -9.999 -99.9 -99.99 -9.99
2018/10/22 17:06 EDT    2.63 -99.99 -999 -999 -999 -99.9 -99.9 -999.9 -9.9 -9.999 -99.9 -99.99 -9.99
2018/10/22 17:12 EDT    2.73 -99.99 -999 -999 -999 -99.9 -99.9 -999.9 -9.9 -9.999 -99.9 -99.99 -9.99
2018/10/22 17:18 EDT    2.84 -99.99 -999 -999 -999 -99.9 -99.9 -999.9 -9.9 -9.999 -99.9 -99.99 -9.99
2018/10/22 17:24 EDT    2.94 -99.99 -999 -999 -999 -99.9 -99.9 -999.9 -9.9 -9.999 -99.9 -99.99 -9.99
2018/10/22 17:30 EDT    3.04 -99.99 -999 -999 -999 -99.9 -99.9 -999.9 -9.9 -9.999 -99.9 -99.99 -9.99
2018/10/22 17:36 EDT    3.14 -99.99 -999 -999 -999 -99.9 -99.9 -999.9 -9.9 -9.999 -99.9 -99.99 -9.99
2018/10/22 17:42 EDT    3.24 -99.99 -999 -999 -999 -99.9 -99.9 -999.9 -9.9 -9.999 -99.9 -99.99 -9.99
2018/10/22 17:48 EDT    3.33 -99.99 -999 -999 -999 -99.9 -99.9 -999.9 -9.9 -9.999 -99.9 -99.99 -9.99
2018/10/22 17:54 EDT    3.43 -99.99 -999 -999 -999 -99.9 -99.9 -999.9 -9.9 -9.999 -99.9 -99.99 -9.99
2018/10/22 18:00 EDT    3.52 -99.99 -999 -999 -999 -99.9 -99.9 -999.9 -9.9 -9.999 -99.9 -99.99 -9.99
2018/10/22 18:06 EDT    3.61 -99.99 -999 -999 -999 -99.9 -99.9 -999.9 -9.9 -9.999 -99.9 -99.99 -9.99
2018/10/22 18:12 EDT    3.69 -99.99 -999 -999 -999 -99.9 -99.9 -999.9 -9.9 -9.999 -99.9 -99.99 -9.99
2018/10/22 18:18 EDT    3.77 -99.99 -999 -999 -999 -99.9 -99.9 -999.9 -9.9 -9.999 -99.9 -99.99 -9.99
2018/10/22 18:24 EDT    3.85 -99.99 -999 -999 -999 -99.9 -99.9 -999.9 -9.9 -9.999 -99.9 -99.99 -9.99
2018/10/22 18:30 EDT    3.92 -99.99 -999 -999 -999 -99.9 -99.9 -999.9 -9.9 -9.999 -99.9 -99.99 -9.99
2018/10/22 18:36 EDT    3.99 -99.99 -999 -999 -999 -99.9 -99.9 -999.9 -9.9 -9.999 -99.9 -99.99 -9.99
2018/10/22 18:42 EDT    4.06 -99.99 -999 -999 -999 -99.9 -99.9 -999.9 -9.9 -9.999 -99.9 -99.99 -9.99
2018/10/22 18:48 EDT    4.12 -99.99 -999 -999 -999 -99.9 -99.9 -999.9 -9.9 -9.999 -99.9 -99.99 -9.99
2018/10/22 18:54 EDT    4.18 -99.99 -999 -999 -999 -99.9 -99.9 -999.9 -9.9 -9.999 -99.9 -99.99 -9.99
2018/10/22 19:00 EDT    4.23 -99.99 -999 -999 -999 -99.9 -99.9 -999.9 -9.9 -9.999 -99.9 -99.99 -9.99
2018/10/22 19:06 EDT    4.28 -99.99 -999 -999 -999 -99.9 -99.9 -999.9 -9.9 -9.999 -99.9 -99.99 -9.99
2018/10/22 19:12 EDT    4.32 -99.99 -999 -999 -999 -99.9 -99.9 -999.9 -9.9 -9.999 -99.9 -99.99 -9.99
2018/10/22 19:18 EDT    4.36 -99.99 -999 -999 -999 -99.9 -99.9 -999.9 -9.9 -9.999 -99.9 -99.99 -9.99
2018/10/22 19:24 EDT    4.39 -99.99 -999 -999 -999 -99.9 -99.9 -999.9 -9.9 -9.999 -99.9 -99.99 -9.99
2018/10/22 19:30 EDT    4.42 -99.99 -999 -999 -999 -99.9 -99.9 -999.9 -9.9 -9.999 -99.9 -99.99 -9.99
2018/10/22 19:36 EDT    4.44 -99.99 -999 -999 -999 -99.9 -99.9 -999.9 -9.9 -9.999 -99.9 -99.99 -9.99
2018/10/22 19:42 EDT    4.45 -99.99 -999 -999 -999 -99.9 -99.9 -999.9 -9.9 -9.999 -99.9 -99.99 -9.99
2018/10/22 19:48 EDT    4.47 -99.99 -999 -999 -999 -99.9 -99.9 -999.9 -9.9 -9.999 -99.9 -99.99 -9.99
2018/10/22 19:54 EDT    4.47 -99.99 -999 -999 -999 -99.9 -99.9 -999.9 -9.9 -9.999 -99.9 -99.99 -9.99
2018/10/22 20:00 EDT    4.47 -99.99 -999 -999 -999 -99.9 -99.9 -999.9 -9.9 -9.999 -99.9 -99.99 -9.99
2018/10/22 20:06 EDT    4.47 -99.99 -999 -999 -999 -99.9 -99.9 -999.9 -9.9 -9.999 -99.9 -99.99 -9.99
2018/10/22 20:12 EDT    4.46 -99.99 -999 -999 -999 -99.9 -99.9 -999.9 -9.9 -9.999 -99.9 -99.99 -9.99
2018/10/22 20:18 EDT    4.44 -99.99 -999 -999 -999 -99.9 -99.9 -999.9 -9.9 -9.999 -99.9 -99.99 -9.99
2018/10/22 20:24 EDT    4.42 -99.99 -999 -999 -999 -99.9 -99.9 -999.9 -9.9 -9.999 -99.9 -99.99 -9.99
2018/10/22 20:30 EDT    4.40 -99.99 -999 -999 -999 -99.9 -99.9 -999.9 -9.9 -9.999 -99.9 -99.99 -9.99
2018/10/22 20:36 EDT    4.37 -99.99 -999 -999 -999 -99.9 -99.9 -999.9 -9.9 -9.999 -99.9 -99.99 -9.99
2018/10/22 20:42 EDT    4.33 -99.99 -999 -999 -999 -99.9 -99.9 -999.9 -9.9 -9.999 -99.9 -99.99 -9.99
2018/10/22 20:48 EDT    4.29 -99.99 -999 -999 -999 -99.9 -99.9 -999.9 -9.9 -9.999 -99.9 -99.99 -9.99
2018/10/22 20:54 EDT    4.25 -99.99 -999 -999 -999 -99.9 -99.9 -999.9 -9.9 -9.999 -99.9 -99.99 -9.99

Revised: 08/08/2018
NOAA / National Ocean Service
Web site owner: Center for Operational Oceanographic Products and Services